• Join FlightAware (Why Join?)
  • Login
  • US Flag 
09:33PM EST


 

Airport Tracker/Info


-or-


 

Live Flight TrackerFlight Track Log ✈ UAL5534 ✈ 24-Jul-2014 ✈ KMSO - KDEN

Flight Track Log - Related Links

Times and Time Zones

All times are in EDT time to prevent confusion due to time zone crossing. See the UAL5534 flight status page for this flight to view local times or setup timezone preferences in your user account.

Time Position Orientation Groundspeed Altitude Reporting Facility
EDT Latitude Longitude Course Direction KTS MPH feet Rate Location/Type
09:20AM 46.7939 -114.0394 129° Southeast 228 262 9,000  Level Salt Lake Center
09:21AM 46.7458 -113.9581 131° Southeast 264 304 10,900 1,800 Climbing Salt Lake Center
09:22AM 46.6844 -113.8586 132° Southeast 306 352 12,700 1,680 Climbing Salt Lake Center
09:23AM 46.6239 -113.7561 131° Southeast 332 382 14,400 1,500 Climbing Salt Lake Center
09:24AM 46.7434 -113.8113 131° Southeast  Level FlightAware Approximate
09:24AM 46.5597 -113.6475 131° Southeast 352 405 15,800  Level Salt Lake Center
09:25AM 46.6707 -113.6838 129° Southeast  Level FlightAware Approximate
09:25AM 46.4872 -113.5281 131° Southeast 363 418 17,400  Level Salt Lake Center
09:26AM 46.4192 -113.4150 131° Southeast 370 426 18,800 1,320 Climbing Salt Lake Center
09:27AM 46.3511 -113.3039 132° Southeast 370 426 20,200 1,380 Climbing Salt Lake Center
09:28AM 46.2783 -113.1844 131° Southeast 372 428 21,700 1,320 Climbing Salt Lake Center
09:29AM 46.2081 -113.0708 132° Southeast 374 430 22,900 1,020 Climbing Salt Lake Center
09:30AM 46.1367 -112.9542 131° Southeast 379 436 23,900 960 Climbing Salt Lake Center
09:31AM 46.0642 -112.8364 132° Southeast 385 443 24,900 960 Climbing Salt Lake Center
09:32AM 45.9894 -112.7158 132° Southeast 393 452 25,900 900 Climbing Salt Lake Center
09:33AM 45.9136 -112.5947 132° Southeast 398 458 26,800 780 Climbing Salt Lake Center
09:34AM 45.8367 -112.4733 132° Southeast 403 464 27,600 660 Climbing Salt Lake Center
09:35AM 45.7597 -112.3503 132° Southeast 406 467 28,200 540 Climbing Salt Lake Center
09:36AM 45.6808 -112.2258 132° Southeast 416 479 28,800 480 Climbing Salt Lake Center
09:37AM 45.6000 -112.0989 132° Southeast 422 486 29,300 480 Climbing Salt Lake Center
09:38AM 45.5181 -111.9697 132° Southeast 428 493 29,800 480 Climbing Salt Lake Center
09:39AM 45.4356 -111.8408 132° Southeast 431 496 30,300 480 Climbing Salt Lake Center
09:40AM 45.3475 -111.7033 132° Southeast 432 497 30,900 480 Climbing Salt Lake Center
09:41AM 45.2650 -111.5747 132° Southeast 432 497 31,400 480 Climbing Salt Lake Center
09:42AM 45.1825 -111.4478 133° Southeast 432 497 31,900 480 Climbing Salt Lake Center
09:43AM 45.0994 -111.3206 133° Southeast 433 498 32,400 420 Climbing Salt Lake Center
09:44AM 45.0283 -111.2131 133° Southeast 431 496 32,800 240 Climbing Salt Lake Center
09:45AM 44.9300 -111.0633 133° Southeast 432 497 33,000 60 Climbing Salt Lake Center
09:46AM 44.8439 -110.9342 133° Southeast 447 514 33,000  Level Salt Lake Center
09:47AM 44.7561 -110.8042 134° Southeast 451 519 33,000  Level Salt Lake Center
09:48AM 44.6683 -110.6719 133° Southeast 457 526 33,000  Level Salt Lake Center
09:49AM 44.5803 -110.5408 133° Southeast 461 531 33,000  Level Salt Lake Center
09:50AM 44.4867 -110.3989 133° Southeast 468 539 33,000  Level Salt Lake Center
09:51AM 44.4019 -110.2733 133° Southeast 468 539 33,000  Level Salt Lake Center
09:52AM 44.3128 -110.1442 134° Southeast 462 532 33,000  Level Salt Lake Center
09:54AM 44.2236 -110.0122 133° Southeast 463 533 33,000  Level Salt Lake Center
09:55AM 44.1150 -109.8547 134° Southeast 467 537 33,000  Level Salt Lake Center
09:56AM 44.0239 -109.7242 134° Southeast 470 541 33,000  Level Salt Lake Center
09:57AM 43.9339 -109.5942 134° Southeast 469 540 33,000  Level Salt Lake Center
09:58AM 43.8436 -109.4650 134° Southeast 469 540 33,000  Level Salt Lake Center
09:59AM 43.7439 -109.3253 135° Southeast 468 539 33,000  Level Salt Lake Center
10:00AM 43.6544 -109.1967 134° Southeast 468 539 33,000  Level Salt Lake Center
10:01AM 43.5642 -109.0717 135° Southeast 467 537 33,000  Level Salt Lake Center
10:02AM 43.4558 -109.0000 154° Southeast 439 505 33,000  Level Salt Lake Center
10:03AM 43.3428 -108.9950 178° South 412 474 33,000  Level Salt Lake Center
10:04AM 43.2278 -108.9961 180° South 412 474 33,000  Level Salt Lake Center
10:05AM 43.0939 -108.9372 162° South 436 502 33,000  Level Salt Lake Center
10:06AM 43.0050 -108.8158 135° Southeast 451 519 33,000  Level Salt Lake Center
10:07AM 42.9206 -108.6658 128° Southeast 471 542 33,000  Level Salt Lake Center
10:08AM 42.8428 -108.5308 128° Southeast 473 544 33,000  Level Salt Lake Center
10:09AM 42.7517 -108.3753 129° Southeast 473 544 33,000  Level Salt Lake Center
10:10AM 42.6722 -108.2419 129° Southeast 472 543 33,000  Level Salt Lake Center
10:11AM 42.5814 -108.0858 128° Southeast 473 544 33,000  Level Salt Lake Center
10:12AM 42.5033 -107.9567 129° Southeast 467 537 33,000  Level Salt Lake Center
10:13AM 42.4250 -107.8222 128° Southeast 467 537 33,000  Level Salt Lake Center
10:14AM 42.3322 -107.6683 129° Southeast 470 541 33,000  Level Salt Lake Center
10:15AM 42.2511 -107.5342 129° Southeast 476 548 33,000  Level Salt Lake Center
10:16AM 42.1586 -107.3800 129° Southeast 476 548 33,000  Level Salt Lake Center
10:17AM 42.1050 -107.2911 129° Southeast 476 548 33,000 -600 Level Denver Center
10:18AM 42.0100 -107.1344 129° Southeast 478 550 32,000 -960 Descending Denver Center
10:19AM 41.9239 -106.9953 130° Southeast 498 573 31,100 -540 Descending Denver Center
10:20AM 41.8261 -106.8342 129° Southeast 499 574 31,000 -60 Descending Denver Center
10:21AM 41.7442 -106.7017 130° Southeast 490 564 31,000  Level Denver Center
10:22AM 41.6497 -106.5522 130° Southeast 479 551 31,000  Level Denver Center
10:23AM 41.5736 -106.4300 130° Southeast 459 528 31,000  Level Denver Center
10:24AM 41.4817 -106.2828 130° Southeast 459 528 31,000 -240 Level Denver Center
10:25AM 41.3772 -106.2106 153° Southeast 456 525 30,600 -540 Descending Denver Center
10:26AM 41.2511 -106.1567 162° South 433 498 30,000 -540 Descending Denver Center
10:27AM 41.1450 -106.1133 163° South 422 486 29,500 -540 Descending Denver Center
10:28AM 41.0222 -106.0436 157° South 426 490 28,900 -720 Descending Denver Center
10:29AM 40.9108 -105.9800 157° South 436 502 28,100 -720 Descending Denver Center
10:30AM 40.8336 -105.8578 130° Southeast 440 506 27,500 -780 Descending Denver Center
10:31AM 40.7617 -105.7258 126° Southeast 442 509 26,500 -1,560 Descending Denver Center
10:32AM 40.6931 -105.6008 126° Southeast 427 491 24,300 -2,160 Descending Denver Center
10:34AM 40.6158 -105.4606 126° Southeast 399 459 22,000 -1,800 Descending Denver Center
10:35AM 40.5556 -105.3497 126° Southeast 377 434 20,600 -1,320 Descending Denver Center
10:36AM 40.4989 -105.2494 127° Southeast 345 397 19,300 -1,680 Descending Denver Center
10:37AM 40.4611 -105.1219 111° Southeast 348 400 17,200 -1,680 Descending Denver Center
10:38AM 40.4286 -105.0114 111° Southeast 331 381 15,900 -1,260 Descending Denver Center
10:39AM 40.4175 -104.8997 97° East 311 358 14,600 -1,200 Descending Denver Center
10:40AM 40.3975 -104.7944 104° East 284 327 13,500 -1,260 Descending Denver Center
10:41AM 40.3392 -104.7286 139° Southeast 277 319 12,100 -1,260 Descending Denver Center
10:42AM 40.2628 -104.6836 156° South 281 323 10,900 -1,080 Descending Denver Center
10:44AM 40.1086 -104.6839 180° South 255 293 8,900 -1,020 Descending Denver Center
10:45AM 40.0428 -104.6853 181° South 241 277 7,900 -960 Descending Denver Center
10:46AM 39.9792 -104.6864 181° South 233 268 7,000 -1,020 Descending Denver Center
10:47AM 39.9275 -104.6861 180° South 171 197 5,900 -780 Descending Denver Center
10:48AM 39.8867 -104.6867 181° South 147 169 5,400 -540 Descending Denver Center